sensor_id;sensor_type;location;lat;lon;timestamp;P1;durP1;ratioP1;P2;durP2;ratioP2
28802;SDS011;15949;55.656;37.422;2023-04-03T00:00:40;27.08;;;16.55;;
28802;SDS011;15949;55.656;37.422;2023-04-03T00:05:46;40.90;;;25.70;;
28802;SDS011;15949;55.656;37.422;2023-04-03T00:10:52;48.47;;;29.10;;
28802;SDS011;15949;55.656;37.422;2023-04-03T00:15:58;54.90;;;33.03;;
28802;SDS011;15949;55.656;37.422;2023-04-03T00:21:04;61.78;;;35.35;;
28802;SDS011;15949;55.656;37.422;2023-04-03T00:26:10;66.45;;;41.05;;
28802;SDS011;15949;55.656;37.422;2023-04-03T00:31:16;74.20;;;43.65;;
28802;SDS011;15949;55.656;37.422;2023-04-03T00:36:22;74.63;;;43.58;;
28802;SDS011;15949;55.656;37.422;2023-04-03T00:41:27;70.28;;;41.70;;
28802;SDS011;15949;55.656;37.422;2023-04-03T00:46:33;67.82;;;40.80;;
28802;SDS011;15949;55.656;37.422;2023-04-03T00:51:38;56.45;;;33.05;;
28802;SDS011;15949;55.656;37.422;2023-04-03T00:56:44;49.38;;;30.08;;
28802;SDS011;15949;55.656;37.422;2023-04-03T01:01:50;44.92;;;27.60;;
28802;SDS011;15949;55.656;37.422;2023-04-03T01:06:57;42.65;;;25.65;;
28802;SDS011;15949;55.656;37.422;2023-04-03T01:12:13;49.45;;;25.10;;
28802;SDS011;15949;55.656;37.422;2023-04-03T01:22:51;46.70;;;27.15;;
28802;SDS011;15949;55.656;37.422;2023-04-03T01:28:04;54.28;;;28.33;;
28802;SDS011;15949;55.656;37.422;2023-04-03T01:33:11;54.38;;;27.70;;
28802;SDS011;15949;55.656;37.422;2023-04-03T01:38:16;46.33;;;26.67;;
28802;SDS011;15949;55.656;37.422;2023-04-03T01:43:22;41.38;;;25.02;;
28802;SDS011;15949;55.656;37.422;2023-04-03T01:48:27;43.33;;;25.23;;
28802;SDS011;15949;55.656;37.422;2023-04-03T01:53:33;43.72;;;25.63;;
28802;SDS011;15949;55.656;37.422;2023-04-03T01:58:39;35.47;;;23.10;;
28802;SDS011;15949;55.656;37.422;2023-04-03T02:03:45;35.15;;;21.73;;
28802;SDS011;15949;55.656;37.422;2023-04-03T02:08:50;33.70;;;21.73;;
28802;SDS011;15949;55.656;37.422;2023-04-03T02:13:56;37.83;;;20.60;;
28802;SDS011;15949;55.656;37.422;2023-04-03T02:19:01;31.20;;;19.33;;
28802;SDS011;15949;55.656;37.422;2023-04-03T02:24:07;32.25;;;19.20;;
28802;SDS011;15949;55.656;37.422;2023-04-03T02:29:13;32.28;;;19.48;;
28802;SDS011;15949;55.656;37.422;2023-04-03T02:34:19;28.73;;;17.35;;
28802;SDS011;15949;55.656;37.422;2023-04-03T02:39:25;23.08;;;16.50;;
28802;SDS011;15949;55.656;37.422;2023-04-03T02:44:31;27.63;;;16.38;;
28802;SDS011;15949;55.656;37.422;2023-04-03T02:49:36;29.30;;;17.30;;
28802;SDS011;15949;55.656;37.422;2023-04-03T02:54:42;30.42;;;16.73;;
28802;SDS011;15949;55.656;37.422;2023-04-03T02:59:48;25.45;;;16.55;;
28802;SDS011;15949;55.656;37.422;2023-04-03T03:04:53;28.25;;;16.52;;
28802;SDS011;15949;55.656;37.422;2023-04-03T03:09:59;26.50;;;16.35;;
28802;SDS011;15949;55.656;37.422;2023-04-03T03:15:05;25.33;;;15.80;;
28802;SDS011;15949;55.656;37.422;2023-04-03T03:20:11;32.20;;;15.43;;
28802;SDS011;15949;55.656;37.422;2023-04-03T03:25:20;25.95;;;14.75;;
28802;SDS011;15949;55.656;37.422;2023-04-03T03:30:25;22.10;;;14.15;;
28802;SDS011;15949;55.656;37.422;2023-04-03T03:35:32;24.20;;;14.55;;
28802;SDS011;15949;55.656;37.422;2023-04-03T03:40:38;21.55;;;13.98;;
28802;SDS011;15949;55.656;37.422;2023-04-03T03:45:43;21.13;;;14.38;;
28802;SDS011;15949;55.656;37.422;2023-04-03T03:50:50;18.98;;;13.25;;
28802;SDS011;15949;55.656;37.422;2023-04-03T03:55:56;25.98;;;15.25;;
28802;SDS011;15949;55.656;37.422;2023-04-03T04:01:02;22.25;;;14.30;;
28802;SDS011;15949;55.656;37.422;2023-04-03T04:06:09;23.30;;;14.50;;
28802;SDS011;15949;55.656;37.422;2023-04-03T04:11:14;19.15;;;14.02;;
28802;SDS011;15949;55.656;37.422;2023-04-03T04:16:20;24.38;;;15.10;;
28802;SDS011;15949;55.656;37.422;2023-04-03T04:21:26;24.00;;;14.73;;
28802;SDS011;15949;55.656;37.422;2023-04-03T04:26:32;29.13;;;14.70;;
28802;SDS011;15949;55.656;37.422;2023-04-03T04:31:37;22.95;;;15.02;;
28802;SDS011;15949;55.656;37.422;2023-04-03T04:36:43;26.13;;;14.90;;
28802;SDS011;15949;55.656;37.422;2023-04-03T04:41:48;22.08;;;14.88;;
28802;SDS011;15949;55.656;37.422;2023-04-03T04:46:54;25.77;;;14.43;;
28802;SDS011;15949;55.656;37.422;2023-04-03T04:52:00;25.25;;;15.50;;
28802;SDS011;15949;55.656;37.422;2023-04-03T04:57:05;31.55;;;15.10;;
28802;SDS011;15949;55.656;37.422;2023-04-03T05:02:11;28.13;;;15.30;;
28802;SDS011;15949;55.656;37.422;2023-04-03T05:07:16;29.63;;;14.35;;
28802;SDS011;15949;55.656;37.422;2023-04-03T05:12:22;28.08;;;16.30;;
28802;SDS011;15949;55.656;37.422;2023-04-03T05:17:28;30.52;;;15.85;;
28802;SDS011;15949;55.656;37.422;2023-04-03T05:22:34;26.02;;;15.88;;
28802;SDS011;15949;55.656;37.422;2023-04-03T05:27:40;27.33;;;16.92;;
28802;SDS011;15949;55.656;37.422;2023-04-03T05:32:45;25.65;;;16.02;;
28802;SDS011;15949;55.656;37.422;2023-04-03T05:37:51;27.77;;;16.85;;
28802;SDS011;15949;55.656;37.422;2023-04-03T05:42:57;28.35;;;15.95;;
28802;SDS011;15949;55.656;37.422;2023-04-03T05:48:02;24.80;;;16.77;;
28802;SDS011;15949;55.656;37.422;2023-04-03T05:53:19;27.55;;;16.45;;
28802;SDS011;15949;55.656;37.422;2023-04-03T05:58:30;29.77;;;16.35;;
28802;SDS011;15949;55.656;37.422;2023-04-03T06:03:36;29.00;;;17.30;;
28802;SDS011;15949;55.656;37.422;2023-04-03T06:08:41;36.33;;;17.80;;
28802;SDS011;15949;55.656;37.422;2023-04-03T06:13:48;28.55;;;17.73;;
28802;SDS011;15949;55.656;37.422;2023-04-03T06:18:54;29.58;;;17.35;;
28802;SDS011;15949;55.656;37.422;2023-04-03T06:24:01;28.30;;;16.52;;
28802;SDS011;15949;55.656;37.422;2023-04-03T06:34:16;33.22;;;17.00;;
28802;SDS011;15949;55.656;37.422;2023-04-03T06:39:23;30.17;;;18.08;;
28802;SDS011;15949;55.656;37.422;2023-04-03T06:44:28;30.85;;;17.08;;
28802;SDS011;15949;55.656;37.422;2023-04-03T06:49:34;26.45;;;18.27;;
28802;SDS011;15949;55.656;37.422;2023-04-03T06:54:42;36.65;;;19.65;;
28802;SDS011;15949;55.656;37.422;2023-04-03T06:59:47;35.40;;;17.88;;
28802;SDS011;15949;55.656;37.422;2023-04-03T07:04:53;35.65;;;18.13;;
28802;SDS011;15949;55.656;37.422;2023-04-03T07:09:58;30.73;;;17.45;;
28802;SDS011;15949;55.656;37.422;2023-04-03T07:15:05;27.38;;;16.65;;
28802;SDS011;15949;55.656;37.422;2023-04-03T07:20:11;31.25;;;16.45;;
28802;SDS011;15949;55.656;37.422;2023-04-03T07:25:16;34.72;;;16.48;;
28802;SDS011;15949;55.656;37.422;2023-04-03T07:30:22;23.42;;;13.52;;
28802;SDS011;15949;55.656;37.422;2023-04-03T07:35:28;25.58;;;13.57;;
28802;SDS011;15949;55.656;37.422;2023-04-03T07:40:33;28.40;;;13.35;;
28802;SDS011;15949;55.656;37.422;2023-04-03T07:45:40;24.17;;;13.07;;
28802;SDS011;15949;55.656;37.422;2023-04-03T07:50:45;19.23;;;12.45;;
28802;SDS011;15949;55.656;37.422;2023-04-03T07:55:51;22.85;;;12.85;;
28802;SDS011;15949;55.656;37.422;2023-04-03T08:01:00;24.77;;;12.95;;
28802;SDS011;15949;55.656;37.422;2023-04-03T08:06:07;18.98;;;11.13;;
28802;SDS011;15949;55.656;37.422;2023-04-03T08:11:13;26.88;;;12.82;;
28802;SDS011;15949;55.656;37.422;2023-04-03T08:16:20;27.52;;;12.75;;
28802;SDS011;15949;55.656;37.422;2023-04-03T08:21:28;28.30;;;12.07;;
28802;SDS011;15949;55.656;37.422;2023-04-03T08:26:33;21.40;;;11.57;;
28802;SDS011;15949;55.656;37.422;2023-04-03T08:31:39;18.48;;;11.10;;
28802;SDS011;15949;55.656;37.422;2023-04-03T08:36:45;19.25;;;9.98;;
28802;SDS011;15949;55.656;37.422;2023-04-03T08:41:51;19.80;;;11.05;;
28802;SDS011;15949;55.656;37.422;2023-04-03T08:57:40;24.73;;;14.15;;
28802;SDS011;15949;55.656;37.422;2023-04-03T09:02:50;28.25;;;15.02;;
28802;SDS011;15949;55.656;37.422;2023-04-03T09:08:04;26.48;;;14.68;;
28802;SDS011;15949;55.656;37.422;2023-04-03T09:19:18;22.70;;;14.00;;
28802;SDS011;15949;55.656;37.422;2023-04-03T09:24:48;25.80;;;13.85;;
28802;SDS011;15949;55.656;37.422;2023-04-03T09:30:01;23.90;;;13.13;;
28802;SDS011;15949;55.656;37.422;2023-04-03T09:35:20;28.23;;;14.02;;
28802;SDS011;15949;55.656;37.422;2023-04-03T09:40:36;23.02;;;13.50;;
28802;SDS011;15949;55.656;37.422;2023-04-03T09:45:53;23.57;;;14.07;;
28802;SDS011;15949;55.656;37.422;2023-04-03T09:51:00;22.98;;;14.10;;
28802;SDS011;15949;55.656;37.422;2023-04-03T09:56:29;31.65;;;14.98;;
28802;SDS011;15949;55.656;37.422;2023-04-03T10:01:36;24.38;;;15.10;;
28802;SDS011;15949;55.656;37.422;2023-04-03T10:06:44;26.70;;;15.63;;
28802;SDS011;15949;55.656;37.422;2023-04-03T10:12:02;32.95;;;15.50;;
28802;SDS011;15949;55.656;37.422;2023-04-03T10:27:35;29.23;;;13.30;;
28802;SDS011;15949;55.656;37.422;2023-04-03T10:54:40;23.85;;;12.65;;
28802;SDS011;15949;55.656;37.422;2023-04-03T10:59:53;32.72;;;13.23;;
28802;SDS011;15949;55.656;37.422;2023-04-03T11:05:18;30.85;;;14.35;;
28802;SDS011;15949;55.656;37.422;2023-04-03T11:10:42;27.45;;;13.80;;
28802;SDS011;15949;55.656;37.422;2023-04-03T11:15:50;26.10;;;12.70;;
28802;SDS011;15949;55.656;37.422;2023-04-03T11:21:00;25.45;;;14.18;;
28802;SDS011;15949;55.656;37.422;2023-04-03T11:26:15;29.15;;;13.95;;
28802;SDS011;15949;55.656;37.422;2023-04-03T11:31:33;37.65;;;15.10;;
28802;SDS011;15949;55.656;37.422;2023-04-03T11:36:47;30.30;;;13.45;;
28802;SDS011;15949;55.656;37.422;2023-04-03T11:41:55;34.97;;;14.80;;
28802;SDS011;15949;55.656;37.422;2023-04-03T11:47:47;28.95;;;12.90;;
28802;SDS011;15949;55.656;37.422;2023-04-03T11:52:55;34.55;;;14.43;;
28802;SDS011;15949;55.656;37.422;2023-04-03T11:58:13;29.50;;;12.57;;
28802;SDS011;15949;55.656;37.422;2023-04-03T12:19:03;21.63;;;12.48;;
28802;SDS011;15949;55.656;37.422;2023-04-03T12:24:29;25.58;;;11.60;;
28802;SDS011;15949;55.656;37.422;2023-04-03T12:29:38;30.98;;;12.02;;
28802;SDS011;15949;55.656;37.422;2023-04-03T12:40:25;25.83;;;12.38;;
28802;SDS011;15949;55.656;37.422;2023-04-03T12:45:46;27.23;;;12.52;;
28802;SDS011;15949;55.656;37.422;2023-04-03T12:50:57;25.33;;;11.43;;
28802;SDS011;15949;55.656;37.422;2023-04-03T13:01:28;18.40;;;9.50;;
28802;SDS011;15949;55.656;37.422;2023-04-03T13:06:37;17.27;;;8.35;;
28802;SDS011;15949;55.656;37.422;2023-04-03T13:11:45;16.98;;;8.30;;
28802;SDS011;15949;55.656;37.422;2023-04-03T13:16:56;14.18;;;8.43;;
28802;SDS011;15949;55.656;37.422;2023-04-03T13:27:32;23.08;;;8.05;;
28802;SDS011;15949;55.656;37.422;2023-04-03T13:32:37;17.98;;;7.43;;
28802;SDS011;15949;55.656;37.422;2023-04-03T13:37:53;15.80;;;7.00;;
28802;SDS011;15949;55.656;37.422;2023-04-03T13:43:22;17.20;;;7.90;;
28802;SDS011;15949;55.656;37.422;2023-04-03T13:48:35;13.10;;;7.25;;
28802;SDS011;15949;55.656;37.422;2023-04-03T13:53:45;13.57;;;7.00;;
28802;SDS011;15949;55.656;37.422;2023-04-03T14:04:18;13.93;;;6.85;;
28802;SDS011;15949;55.656;37.422;2023-04-03T14:09:29;15.77;;;6.72;;
28802;SDS011;15949;55.656;37.422;2023-04-03T14:14:35;16.63;;;6.97;;
28802;SDS011;15949;55.656;37.422;2023-04-03T14:19:43;12.68;;;6.72;;
28802;SDS011;15949;55.656;37.422;2023-04-03T14:24:50;17.75;;;6.70;;
28802;SDS011;15949;55.656;37.422;2023-04-03T14:29:57;18.40;;;6.72;;
28802;SDS011;15949;55.656;37.422;2023-04-03T14:35:04;20.60;;;7.15;;
28802;SDS011;15949;55.656;37.422;2023-04-03T14:40:13;19.30;;;6.78;;
28802;SDS011;15949;55.656;37.422;2023-04-03T14:50:27;19.77;;;7.43;;
28802;SDS011;15949;55.656;37.422;2023-04-03T14:55:33;16.55;;;6.72;;
28802;SDS011;15949;55.656;37.422;2023-04-03T15:00:38;31.38;;;8.18;;
28802;SDS011;15949;55.656;37.422;2023-04-03T15:05:44;22.65;;;7.50;;
28802;SDS011;15949;55.656;37.422;2023-04-03T15:10:52;24.13;;;7.90;;
28802;SDS011;15949;55.656;37.422;2023-04-03T15:15:58;25.70;;;8.10;;
28802;SDS011;15949;55.656;37.422;2023-04-03T15:21:04;43.65;;;8.50;;
28802;SDS011;15949;55.656;37.422;2023-04-03T15:26:10;30.48;;;8.48;;
28802;SDS011;15949;55.656;37.422;2023-04-03T15:31:15;32.60;;;9.05;;
28802;SDS011;15949;55.656;37.422;2023-04-03T15:36:21;40.30;;;9.15;;
28802;SDS011;15949;55.656;37.422;2023-04-03T15:41:27;30.00;;;8.80;;
28802;SDS011;15949;55.656;37.422;2023-04-03T15:46:32;19.70;;;9.15;;
28802;SDS011;15949;55.656;37.422;2023-04-03T15:51:38;26.98;;;8.55;;
28802;SDS011;15949;55.656;37.422;2023-04-03T15:56:43;24.92;;;8.50;;
28802;SDS011;15949;55.656;37.422;2023-04-03T16:01:49;21.58;;;8.20;;
28802;SDS011;15949;55.656;37.422;2023-04-03T16:06:55;19.48;;;7.70;;
28802;SDS011;15949;55.656;37.422;2023-04-03T16:12:02;20.13;;;7.90;;
28802;SDS011;15949;55.656;37.422;2023-04-03T16:17:08;24.00;;;8.00;;
28802;SDS011;15949;55.656;37.422;2023-04-03T16:22:14;16.38;;;7.50;;
28802;SDS011;15949;55.656;37.422;2023-04-03T16:27:20;16.40;;;7.80;;
28802;SDS011;15949;55.656;37.422;2023-04-03T16:32:27;20.20;;;8.30;;
28802;SDS011;15949;55.656;37.422;2023-04-03T16:37:35;18.63;;;8.63;;
28802;SDS011;15949;55.656;37.422;2023-04-03T16:42:41;24.13;;;8.43;;
28802;SDS011;15949;55.656;37.422;2023-04-03T16:47:47;24.10;;;9.50;;
28802;SDS011;15949;55.656;37.422;2023-04-03T16:52:52;21.90;;;9.35;;
28802;SDS011;15949;55.656;37.422;2023-04-03T16:57:58;20.88;;;9.43;;
28802;SDS011;15949;55.656;37.422;2023-04-03T17:03:03;23.10;;;10.50;;
28802;SDS011;15949;55.656;37.422;2023-04-03T17:08:09;25.98;;;10.95;;
28802;SDS011;15949;55.656;37.422;2023-04-03T17:13:15;24.42;;;11.57;;
28802;SDS011;15949;55.656;37.422;2023-04-03T17:18:20;19.58;;;11.07;;
28802;SDS011;15949;55.656;37.422;2023-04-03T17:23:26;27.60;;;11.13;;
28802;SDS011;15949;55.656;37.422;2023-04-03T17:28:33;21.38;;;9.98;;
28802;SDS011;15949;55.656;37.422;2023-04-03T17:33:39;25.77;;;10.45;;
28802;SDS011;15949;55.656;37.422;2023-04-03T17:38:44;30.27;;;10.32;;
28802;SDS011;15949;55.656;37.422;2023-04-03T17:43:52;27.15;;;9.98;;
28802;SDS011;15949;55.656;37.422;2023-04-03T17:49:01;31.00;;;11.25;;
28802;SDS011;15949;55.656;37.422;2023-04-03T17:54:07;28.00;;;9.98;;
28802;SDS011;15949;55.656;37.422;2023-04-03T17:59:14;29.63;;;10.60;;
28802;SDS011;15949;55.656;37.422;2023-04-03T18:04:20;38.35;;;10.60;;
28802;SDS011;15949;55.656;37.422;2023-04-03T18:09:28;27.90;;;10.02;;
28802;SDS011;15949;55.656;37.422;2023-04-03T18:14:36;28.00;;;9.80;;
28802;SDS011;15949;55.656;37.422;2023-04-03T18:19:42;20.92;;;9.73;;
28802;SDS011;15949;55.656;37.422;2023-04-03T18:24:48;21.20;;;9.35;;
28802;SDS011;15949;55.656;37.422;2023-04-03T18:29:57;18.38;;;9.95;;
28802;SDS011;15949;55.656;37.422;2023-04-03T18:35:10;27.02;;;9.45;;
28802;SDS011;15949;55.656;37.422;2023-04-03T18:40:16;26.80;;;10.13;;
28802;SDS011;15949;55.656;37.422;2023-04-03T18:45:22;23.02;;;9.48;;
28802;SDS011;15949;55.656;37.422;2023-04-03T18:50:28;19.58;;;10.38;;
28802;SDS011;15949;55.656;37.422;2023-04-03T18:55:34;16.50;;;9.70;;
28802;SDS011;15949;55.656;37.422;2023-04-03T19:00:39;19.80;;;9.68;;
28802;SDS011;15949;55.656;37.422;2023-04-03T19:05:46;19.95;;;10.18;;
28802;SDS011;15949;55.656;37.422;2023-04-03T19:10:51;22.90;;;9.90;;
28802;SDS011;15949;55.656;37.422;2023-04-03T19:15:57;21.08;;;10.45;;
28802;SDS011;15949;55.656;37.422;2023-04-03T19:21:04;22.52;;;10.63;;
28802;SDS011;15949;55.656;37.422;2023-04-03T19:26:11;20.10;;;11.15;;
28802;SDS011;15949;55.656;37.422;2023-04-03T19:31:18;18.98;;;10.95;;
28802;SDS011;15949;55.656;37.422;2023-04-03T19:36:27;14.57;;;10.43;;
28802;SDS011;15949;55.656;37.422;2023-04-03T19:41:34;18.35;;;11.23;;
28802;SDS011;15949;55.656;37.422;2023-04-03T19:46:41;22.02;;;11.32;;
28802;SDS011;15949;55.656;37.422;2023-04-03T19:51:46;15.68;;;12.23;;
28802;SDS011;15949;55.656;37.422;2023-04-03T19:56:52;16.88;;;13.10;;
28802;SDS011;15949;55.656;37.422;2023-04-03T20:01:58;19.80;;;13.10;;
28802;SDS011;15949;55.656;37.422;2023-04-03T20:07:04;22.55;;;14.27;;
28802;SDS011;15949;55.656;37.422;2023-04-03T20:12:09;22.70;;;14.10;;
28802;SDS011;15949;55.656;37.422;2023-04-03T20:17:16;21.15;;;15.98;;
28802;SDS011;15949;55.656;37.422;2023-04-03T20:22:21;19.65;;;14.73;;
28802;SDS011;15949;55.656;37.422;2023-04-03T20:27:27;20.80;;;15.93;;
28802;SDS011;15949;55.656;37.422;2023-04-03T20:32:33;25.05;;;16.73;;
28802;SDS011;15949;55.656;37.422;2023-04-03T20:37:39;24.70;;;17.10;;
28802;SDS011;15949;55.656;37.422;2023-04-03T20:42:47;28.08;;;18.55;;
28802;SDS011;15949;55.656;37.422;2023-04-03T20:47:52;25.48;;;18.38;;
28802;SDS011;15949;55.656;37.422;2023-04-03T20:52:58;28.60;;;19.02;;
28802;SDS011;15949;55.656;37.422;2023-04-03T20:58:05;25.65;;;19.08;;
28802;SDS011;15949;55.656;37.422;2023-04-03T21:03:10;27.23;;;19.83;;
28802;SDS011;15949;55.656;37.422;2023-04-03T21:19:44;29.08;;;20.13;;
28802;SDS011;15949;55.656;37.422;2023-04-03T21:24:50;33.25;;;22.17;;
28802;SDS011;15949;55.656;37.422;2023-04-03T21:29:56;30.70;;;21.58;;
28802;SDS011;15949;55.656;37.422;2023-04-03T21:35:02;30.13;;;21.33;;
28802;SDS011;15949;55.656;37.422;2023-04-03T21:40:09;32.22;;;22.35;;
28802;SDS011;15949;55.656;37.422;2023-04-03T21:45:15;29.17;;;21.70;;
28802;SDS011;15949;55.656;37.422;2023-04-03T21:50:21;29.98;;;21.42;;
28802;SDS011;15949;55.656;37.422;2023-04-03T21:55:26;34.28;;;23.27;;
28802;SDS011;15949;55.656;37.422;2023-04-03T22:00:32;31.55;;;23.88;;
28802;SDS011;15949;55.656;37.422;2023-04-03T22:05:38;32.17;;;23.50;;
28802;SDS011;15949;55.656;37.422;2023-04-03T22:10:44;41.03;;;24.70;;
28802;SDS011;15949;55.656;37.422;2023-04-03T22:15:50;36.83;;;25.13;;
28802;SDS011;15949;55.656;37.422;2023-04-03T22:20:56;31.00;;;23.70;;
28802;SDS011;15949;55.656;37.422;2023-04-03T22:26:05;32.78;;;23.33;;
28802;SDS011;15949;55.656;37.422;2023-04-03T22:31:12;35.42;;;23.58;;
28802;SDS011;15949;55.656;37.422;2023-04-03T22:36:20;36.97;;;22.77;;
28802;SDS011;15949;55.656;37.422;2023-04-03T22:41:25;37.53;;;24.27;;
28802;SDS011;15949;55.656;37.422;2023-04-03T22:46:31;32.08;;;22.90;;
28802;SDS011;15949;55.656;37.422;2023-04-03T22:51:37;33.85;;;24.25;;
28802;SDS011;15949;55.656;37.422;2023-04-03T22:56:42;36.95;;;27.15;;
28802;SDS011;15949;55.656;37.422;2023-04-03T23:01:48;45.80;;;34.35;;
28802;SDS011;15949;55.656;37.422;2023-04-03T23:06:53;55.10;;;37.70;;
28802;SDS011;15949;55.656;37.422;2023-04-03T23:11:59;59.85;;;42.42;;
28802;SDS011;15949;55.656;37.422;2023-04-03T23:17:05;62.25;;;45.03;;
28802;SDS011;15949;55.656;37.422;2023-04-03T23:22:11;60.88;;;44.60;;
28802;SDS011;15949;55.656;37.422;2023-04-03T23:27:19;58.75;;;43.60;;
28802;SDS011;15949;55.656;37.422;2023-04-03T23:32:24;59.67;;;44.38;;
28802;SDS011;15949;55.656;37.422;2023-04-03T23:37:30;59.30;;;44.15;;
28802;SDS011;15949;55.656;37.422;2023-04-03T23:42:36;46.90;;;35.42;;
28802;SDS011;15949;55.656;37.422;2023-04-03T23:47:41;43.42;;;32.33;;
28802;SDS011;15949;55.656;37.422;2023-04-03T23:52:47;40.97;;;30.08;;
28802;SDS011;15949;55.656;37.422;2023-04-03T23:57:52;43.67;;;31.42;;
